Arneckeville, Texas
Current Conditions -  °F | °C
As of 5:51 AM on Friday 19 Dec 2014 (Local Time) from KVCT Reporting Station
Heavy Rain Heavy Rain  
Wind Chill: 59°   Ceiling: 500
Heat Index: 59°   Visibility: 2.5mi
Dew Point: 58°   Wind: 13mph
Humidity: 96%   Direction: 10°N
Pressure: 29.97"   Gusts: NA
Location:  29.0941°N, 97.191°W
Report Text: KVCT 191151Z AUTO 01011KT 2 1/2SM +RA BR BKN005 BKN013 OVC024 15/14 A2997 RMK AO2 LTG DSNT S RAB20 SLP148 P0004 60020 70028 T01500144 10183 20150 56004
Loading
Personal Weather Stations






























Interactive Weather Map New forecast layout! Learn more

10-Day Weather Forecast

Advertisements
Track Severe Weather on mobile